Weather at Winkwood Farm Airstrip

Public forecast

Using degrees Celsius for public forecast. Weather courtesy of forecast.io.

Closest aviation weather report (METAR) to Winkwood Farm Airstrip

Closest report is Farnborough Airport, 8.9 nm (16.5 km) NNW. Retrieved 2021/01/18 12:20 UTC (31 minutes ago):

EGLF 181220Z AUTO 24009KT 9999 NCD 06/04 Q1022

Closest aviation forecast (TAF) to Winkwood Farm Airstrip

Forecast is more than 12 hours old.

Closest forecast is Farnborough Airport, 8.9 nm (16.5 km) NNW. Retrieved 2016/04/18 18:00 UTC (5 years ago):

TAF EGLF 181658Z 1818/1821 26008KT 9999 BKN040